Sertania, Brazil
Current Conditions -  °F | °C
As of 1:00 PM on Wednesday 28 Jan 2015 (Local Time) from SBKG Reporting Station
Scattered Clouds Scattered Clouds  
Wind Chill: 86°   Ceiling: Unl
Heat Index: 86°   Visibility: 6mi
Dew Point: 61°   Wind: 16mph
Humidity: 43%   Direction: 120°ESE
Pressure: 29.94"   Gusts: NA
Location:  8.07°S, 37.26°W
Report Text: SBKG 281600Z 12014KT 9999 SCT040 30/16 Q1014
Loading
Personal Weather Stations






























Interactive Weather Map New forecast layout! Learn more

10-Day Weather Forecast

Advertisements
Track Severe Weather on mobile